Flight Track Log - Related Links

Times and Time Zones

All times are in EDT time to prevent confusion due to time zone crossing. See the MKU302 flight status page for this flight to view local times or setup timezone preferences in your user account.

Time Position Orientation Groundspeed Altitude Reporting Facility
EDT Latitude Longitude Course Direction KTS MPH feet Rate Location/Type
Mon 02:09:57 PM 20.9333 -156.7500 248° West 160 184 3,200  Level Honolulu Center
Mon 02:10:57 PM 20.9333 -156.8000 270° West 160 184 4,500 1,300 Climbing Honolulu Center
Mon 02:11:57 PM 20.9333 -156.8500 270° West 160 184 5,800 1,240 Climbing Honolulu Center
Mon 02:12:58 PM 20.9500 -156.9000 290° West 170 196 7,000 1,091 Climbing Honolulu Center
Mon 02:13:58 PM 20.9500 -156.9500 270° West 170 196 8,000 500 Climbing Honolulu Center
Mon 02:14:58 PM 20.9500 -157.0000 270° West 190 219 8,000  Level Honolulu Center
Mon 02:15:58 PM 20.9333 -157.0667 255° West 200 230 8,000  Level Honolulu Center
Mon 02:16:58 PM 20.9333 -157.1167 270° West 200 230 8,000  Level Honolulu Center
Mon 02:17:58 PM 20.9333 -157.1833 270° West 210 242 8,000  Level Honolulu Center
Mon 02:18:58 PM 20.9333 -157.2500 270° West 210 242 8,000 50 Level Honolulu Center
Mon 02:19:59 PM 20.9167 -157.3167 255° West 210 242 8,100 50 Climbing Honolulu Center
Mon 02:20:59 PM 20.9167 -157.3833 270° West 210 242 8,100  Level Honolulu Center
Mon 02:21:59 PM 20.9167 -157.4333 270° West 210 242 8,100 -150 Level Honolulu Center
Mon 02:22:59 PM 20.9333 -157.5000 285° West 210 242 7,800 -450 Descending Honolulu Center
Mon 02:23:59 PM 20.9667 -157.5500 306° West 230 265 7,200 -600 Descending Honolulu Center
Mon 02:24:59 PM 20.9833 -157.6167 285° West 240 276 6,600 -600 Descending Honolulu Center
Mon 02:25:59 PM 21.0167 -157.6833 298° West 230 265 6,000 -650 Descending Honolulu Center
Mon 02:26:59 PM 21.0500 -157.7500 298° West 230 265 5,300 -893 Descending Honolulu Center
Mon 02:28:00 PM 21.0833 -157.8167 298° West 240 276 4,200 -1,300 Descending Honolulu Center
Mon 02:28:59 PM 21.1167 -157.8667 306° West 240 276 2,700 -1,311 Descending Honolulu Center
Mon 02:29:59 PM 21.1833 -157.9000 335° Northwest 260 299 1,600 -694 Descending Honolulu Center
Mon 02:31:00 PM 21.2500 -157.9333 335° Northwest 230 265 1,300 -298 Descending Honolulu Center
Mon 02:32:00 PM 21.3000 -157.9500 343° North 170 196 1,000 -300 Descending Honolulu Center
Mon 02:33:00 PM 21.3167 -157.9167 North  Level FlightAware Approximate

Login

Don't have an account? Register now (free) for customized features, flight alerts, and more!